Time;durP1;ratioP1;P1;durP2;ratioP2;P2;SDS_P1;SDS_P2;PMS_P1;PMS_P2;Temp;Humidity;BMP_temperature;BMP_pressure;BME280_temperature;BME280_humidity;BME280_pressure;Samples;Min_cycle;Max_cycle;Signal;HPM_P1;HPM_P2
2022/05/29 00:01:47;;;;;;;5.03;2.28;;;;;;;;;;5037296;28;20495;-80
2022/05/29 00:04:13;;;;;;;5.53;2.25;;;;;;;;;;5040100;28;20017;-79
2022/05/29 00:06:40;;;;;;;4.90;2.40;;;;;;;;;;5041873;28;20558;-77
2022/05/29 00:09:07;;;;;;;5.40;2.75;;;;;;;;;;5038681;28;20279;-79
2022/05/29 00:11:34;;;;;;;4.28;2.30;;;;;;;;;;5040514;28;20498;-78
2022/05/29 00:14:00;;;;;;;4.53;2.38;;;;;;;;;;5040536;28;20053;-77
2022/05/29 00:16:27;;;;;;;4.22;2.45;;;;;;;;;;5034419;28;20432;-78
2022/05/29 00:18:53;;;;;;;5.43;2.40;;;;;;;;;;5034274;28;20075;-78
2022/05/29 00:21:19;;;;;;;4.93;2.72;;;;;;;;;;5033555;28;20101;-78
2022/05/29 00:23:50;;;;;;;4.82;2.42;;;;;;;;;;5029512;28;20115;-78
2022/05/29 00:26:17;;;;;;;5.57;2.90;;;;;;;;;;5034285;28;20060;-78
2022/05/29 00:28:43;;;;;;;5.13;2.58;;;;;;;;;;5033302;28;20491;-77
2022/05/29 00:31:10;;;;;;;4.80;2.40;;;;;;;;;;5027218;28;20509;-77
2022/05/29 00:33:36;;;;;;;4.00;2.30;;;;;;;;;;5030952;28;20018;-78
2022/05/29 00:36:02;;;;;;;4.97;2.72;;;;;;;;;;5033858;28;20040;-77
2022/05/29 00:38:28;;;;;;;5.00;2.95;;;;;;;;;;5033305;28;20079;-78
2022/05/29 00:41:05;;;;;;;5.10;2.80;;;;;;;;;;5036194;28;20390;-80
2022/05/29 00:43:31;;;;;;;4.57;2.53;;;;;;;;;;5036758;28;20075;-78
2022/05/29 00:45:58;;;;;;;5.50;2.80;;;;;;;;;;5033659;28;20030;-77
2022/05/29 00:48:25;;;;;;;5.72;2.53;;;;;;;;;;5033334;28;20430;-77
2022/05/29 00:50:54;;;;;;;4.13;2.15;;;;;;;;;;5035253;28;20454;-79
2022/05/29 00:53:21;;;;;;;4.95;2.47;;;;;;;;;;5038173;28;20112;-79
2022/05/29 00:55:49;;;;;;;4.60;2.28;;;;;;;;;;5039214;28;20035;-79
2022/05/29 00:58:16;;;;;;;5.50;2.60;;;;;;;;;;5040667;28;20063;-79
2022/05/29 01:00:43;;;;;;;5.60;2.70;;;;;;;;;;5040469;28;20032;-79
2022/05/29 01:03:09;;;;;;;4.82;2.58;;;;;;;;;;5038804;28;20041;-79
2022/05/29 01:05:36;;;;;;;4.65;2.97;;;;;;;;;;5035963;28;20487;-80
2022/05/29 01:08:02;;;;;;;4.68;2.55;;;;;;;;;;5053539;28;20025;-80
2022/05/29 01:10:45;;;;;;;6.47;2.75;;;;;;;;;;5038959;28;20032;-80
2022/05/29 01:13:15;;;;;;;5.10;2.63;;;;;;;;;;5038244;28;20100;-80
2022/05/29 01:15:44;;;;;;;4.63;2.60;;;;;;;;;;5037652;28;20025;-80
2022/05/29 01:18:19;;;;;;;5.22;2.70;;;;;;;;;;5038975;28;20086;-81
2022/05/29 01:20:48;;;;;;;5.03;2.75;;;;;;;;;;5038381;28;20022;-80
2022/05/29 01:23:14;;;;;;;5.85;2.97;;;;;;;;;;5039406;28;20040;-78
2022/05/29 01:25:52;;;;;;;5.30;2.85;;;;;;;;;;5026506;28;20049;-79
2022/05/29 01:28:30;;;;;;;6.05;3.85;;;;;;;;;;5019298;28;20030;-78
2022/05/29 01:31:02;;;;;;;6.05;3.22;;;;;;;;;;5019304;28;20022;-79
2022/05/29 01:33:47;;;;;;;5.07;2.70;;;;;;;;;;5030764;28;20395;-79
2022/05/29 01:36:13;;;;;;;5.50;2.72;;;;;;;;;;5035470;28;20025;-79
2022/05/29 01:38:44;;;;;;;6.10;2.75;;;;;;;;;;5020537;28;20388;-78
2022/05/29 01:41:10;;;;;;;5.47;3.00;;;;;;;;;;5020609;28;20022;-79
2022/05/29 01:43:41;;;;;;;6.15;2.63;;;;;;;;;;5039222;28;20104;-79
2022/05/29 01:46:23;;;;;;;7.25;2.97;;;;;;;;;;5038633;28;20036;-79
2022/05/29 01:49:01;;;;;;;4.85;2.65;;;;;;;;;;5036728;28;20064;-78
2022/05/29 01:51:47;;;;;;;5.47;2.97;;;;;;;;;;5030738;28;20060;-78
2022/05/29 01:54:30;;;;;;;4.93;2.85;;;;;;;;;;5034212;28;20499;-80
2022/05/29 01:56:59;;;;;;;5.88;3.20;;;;;;;;;;5035196;28;20025;-79
2022/05/29 01:59:44;;;;;;;6.43;3.28;;;;;;;;;;5038962;28;20147;-79
2022/05/29 02:02:14;;;;;;;5.53;3.20;;;;;;;;;;5037134;28;20057;-79
2022/05/29 02:04:42;;;;;;;9.95;3.67;;;;;;;;;;5039114;28;20618;-79
2022/05/29 02:10:15;;;;;;;6.28;3.28;;;;;;;;;;5037780;28;20068;-79
2022/05/29 02:12:49;;;;;;;6.13;3.40;;;;;;;;;;5037210;28;20414;-79
2022/05/29 02:15:18;;;;;;;6.85;3.90;;;;;;;;;;5034445;28;20084;-78
2022/05/29 02:17:47;;;;;;;5.75;3.25;;;;;;;;;;5020299;28;20053;-79
2022/05/29 02:20:19;;;;;;;6.80;3.40;;;;;;;;;;5013119;28;20457;-79
2022/05/29 02:22:45;;;;;;;6.18;3.47;;;;;;;;;;5020199;28;20494;-78
2022/05/29 02:25:13;;;;;;;5.15;2.90;;;;;;;;;;5032123;28;20049;-78
2022/05/29 02:27:50;;;;;;;5.10;2.95;;;;;;;;;;5031654;28;20154;-78
2022/05/29 02:30:16;;;;;;;6.60;2.80;;;;;;;;;;5030983;28;20079;-77
2022/05/29 02:32:48;;;;;;;5.47;3.20;;;;;;;;;;5019979;28;20057;-78
2022/05/29 02:35:25;;;;;;;5.65;3.15;;;;;;;;;;5031466;28;20037;-78
2022/05/29 02:38:26;;;;;;;4.68;2.90;;;;;;;;;;5030673;28;20442;-77
2022/05/29 02:41:15;;;;;;;5.97;2.88;;;;;;;;;;5015588;28;20100;-80
2022/05/29 02:43:46;;;;;;;5.35;3.15;;;;;;;;;;5014757;28;20048;-80
2022/05/29 02:46:28;;;;;;;5.15;3.00;;;;;;;;;;5003776;28;20041;-80
2022/05/29 02:48:58;;;;;;;7.18;2.92;;;;;;;;;;5014727;28;20569;-79
2022/05/29 02:51:44;;;;;;;5.07;2.72;;;;;;;;;;5016944;28;20026;-79
2022/05/29 02:54:11;;;;;;;4.90;2.63;;;;;;;;;;5015251;28;20056;-79
2022/05/29 02:56:37;;;;;;;4.50;2.80;;;;;;;;;;4998718;28;20135;-79
2022/05/29 02:59:03;;;;;;;4.50;2.78;;;;;;;;;;5015692;28;20060;-79
2022/05/29 03:01:48;;;;;;;4.78;2.50;;;;;;;;;;5004893;28;20097;-79
2022/05/29 03:04:23;;;;;;;5.10;2.67;;;;;;;;;;4998736;28;20091;-79
2022/05/29 03:07:01;;;;;;;4.85;2.50;;;;;;;;;;5015288;28;20034;-79
2022/05/29 03:09:30;;;;;;;4.95;2.67;;;;;;;;;;5015451;28;20304;-79
2022/05/29 03:11:56;;;;;;;6.63;3.00;;;;;;;;;;4998872;28;20049;-79
2022/05/29 03:14:28;;;;;;;6.75;2.97;;;;;;;;;;5021953;28;20030;-80
2022/05/29 03:17:09;;;;;;;6.07;2.67;;;;;;;;;;5035362;28;20040;-80
2022/05/29 03:19:41;;;;;;;4.82;2.92;;;;;;;;;;5036959;28;20081;-79
2022/05/29 03:22:13;;;;;;;5.25;2.67;;;;;;;;;;5037128;28;20024;-79
2022/05/29 03:24:42;;;;;;;6.00;2.85;;;;;;;;;;5036518;28;20109;-79
2022/05/29 03:27:20;;;;;;;5.63;3.08;;;;;;;;;;5037972;28;20049;-79
2022/05/29 03:29:56;;;;;;;5.07;2.60;;;;;;;;;;5030943;28;20049;-79
2022/05/29 03:32:22;;;;;;;5.22;3.00;;;;;;;;;;5035137;28;20364;-79
2022/05/29 03:34:48;;;;;;;6.68;2.85;;;;;;;;;;5040068;28;20018;-78
2022/05/29 03:37:14;;;;;;;5.05;2.80;;;;;;;;;;5040946;28;20025;-79
2022/05/29 03:39:40;;;;;;;5.28;2.85;;;;;;;;;;5041258;28;20395;-79
2022/05/29 03:42:07;;;;;;;5.30;2.83;;;;;;;;;;5037081;28;20025;-78
2022/05/29 03:44:33;;;;;;;5.50;2.90;;;;;;;;;;5034584;28;20021;-78
2022/05/29 03:46:59;;;;;;;5.47;2.83;;;;;;;;;;5035977;28;20136;-78
2022/05/29 03:49:25;;;;;;;5.75;2.90;;;;;;;;;;5037110;28;20096;-79
2022/05/29 03:51:51;;;;;;;5.38;2.97;;;;;;;;;;5038599;28;20025;-79
2022/05/29 03:54:17;;;;;;;6.70;3.25;;;;;;;;;;5042005;28;20114;-79
2022/05/29 03:56:43;;;;;;;5.75;3.25;;;;;;;;;;5038190;28;20049;-79
2022/05/29 03:59:09;;;;;;;5.75;3.30;;;;;;;;;;5038171;28;20021;-79
2022/05/29 04:01:36;;;;;;;6.30;2.97;;;;;;;;;;5038200;28;20017;-80
2022/05/29 04:04:02;;;;;;;5.13;2.90;;;;;;;;;;5037236;28;20483;-80
2022/05/29 04:06:28;;;;;;;5.47;3.00;;;;;;;;;;5037476;28;20051;-79
2022/05/29 04:14:27;;;;;;;6.20;2.75;;;;;;;;;;5039215;28;20121;-80
2022/05/29 04:16:53;;;;;;;4.75;2.20;;;;;;;;;;5037769;28;20026;-79
2022/05/29 04:19:20;;;;;;;5.38;2.65;;;;;;;;;;5039346;28;20028;-79
2022/05/29 04:21:48;;;;;;;4.57;2.30;;;;;;;;;;5038370;28;20056;-79
2022/05/29 04:24:16;;;;;;;6.03;2.72;;;;;;;;;;5039677;28;20033;-80
2022/05/29 04:26:41;;;;;;;5.55;2.63;;;;;;;;;;5038508;28;20079;-79
2022/05/29 04:29:07;;;;;;;5.97;2.38;;;;;;;;;;5040647;28;20441;-80
2022/05/29 04:31:34;;;;;;;5.60;2.78;;;;;;;;;;5039132;28;20026;-79
2022/05/29 04:34:00;;;;;;;6.32;2.80;;;;;;;;;;5038844;28;20522;-78
2022/05/29 04:36:26;;;;;;;5.68;3.38;;;;;;;;;;5039597;28;20021;-80
2022/05/29 04:38:52;;;;;;;6.22;2.90;;;;;;;;;;5038140;28;20097;-80
2022/05/29 04:41:24;;;;;;;4.57;2.60;;;;;;;;;;5037984;28;20040;-79
2022/05/29 04:43:51;;;;;;;4.53;2.80;;;;;;;;;;5042365;28;20017;-80
2022/05/29 04:46:17;;;;;;;4.97;2.63;;;;;;;;;;5039905;28;20668;-79
2022/05/29 04:48:43;;;;;;;5.60;2.90;;;;;;;;;;5047590;28;20059;-79
2022/05/29 04:51:09;;;;;;;5.53;2.63;;;;;;;;;;5044819;28;20018;-79
2022/05/29 04:53:36;;;;;;;5.13;2.63;;;;;;;;;;5034325;28;20030;-76
2022/05/29 04:56:03;;;;;;;5.38;2.72;;;;;;;;;;5031857;28;20494;-77
2022/05/29 04:58:29;;;;;;;7.47;2.70;;;;;;;;;;5017285;28;20364;-78
2022/05/29 05:00:59;;;;;;;4.40;2.80;;;;;;;;;;5020410;28;20434;-79
2022/05/29 05:03:25;;;;;;;5.75;3.05;;;;;;;;;;5032114;28;20033;-78
2022/05/29 05:05:51;;;;;;;5.55;2.80;;;;;;;;;;5021701;28;20546;-78
2022/05/29 05:08:17;;;;;;;6.40;2.90;;;;;;;;;;5028913;28;20021;-78
2022/05/29 05:10:43;;;;;;;5.18;2.70;;;;;;;;;;5031799;28;20078;-78
2022/05/29 05:13:09;;;;;;;6.68;3.67;;;;;;;;;;5033778;28;20022;-78
2022/05/29 05:15:35;;;;;;;5.95;2.70;;;;;;;;;;5031773;28;20025;-79
2022/05/29 05:18:01;;;;;;;5.00;2.70;;;;;;;;;;5031935;28;20025;-78
2022/05/29 05:20:30;;;;;;;5.75;2.72;;;;;;;;;;5032180;28;20159;-78
2022/05/29 05:22:56;;;;;;;4.88;3.10;;;;;;;;;;5032253;28;20029;-78
2022/05/29 05:25:22;;;;;;;5.00;2.63;;;;;;;;;;5031914;28;20406;-78
2022/05/29 05:27:48;;;;;;;5.10;2.85;;;;;;;;;;5028836;28;20029;-78
2022/05/29 05:30:14;;;;;;;6.50;2.65;;;;;;;;;;5032208;28;20095;-78
2022/05/29 05:32:40;;;;;;;4.70;2.58;;;;;;;;;;5031542;28;20041;-77
2022/05/29 05:35:07;;;;;;;5.22;2.83;;;;;;;;;;5032929;28;20037;-78
2022/05/29 05:37:37;;;;;;;4.93;2.80;;;;;;;;;;5033719;28;20029;-79
2022/05/29 05:40:13;;;;;;;7.20;3.30;;;;;;;;;;5025303;28;20438;-78
2022/05/29 05:42:39;;;;;;;4.65;2.50;;;;;;;;;;5031636;28;20471;-78
2022/05/29 05:45:07;;;;;;;5.30;2.72;;;;;;;;;;5033049;28;20024;-79
2022/05/29 05:47:34;;;;;;;6.75;2.92;;;;;;;;;;5030271;28;20075;-79
2022/05/29 05:50:00;;;;;;;4.90;2.60;;;;;;;;;;5029349;28;20025;-79
2022/05/29 05:52:26;;;;;;;5.13;2.55;;;;;;;;;;5028703;28;20059;-78
2022/05/29 05:54:52;;;;;;;5.50;2.90;;;;;;;;;;5024919;28;20083;-78
2022/05/29 05:57:21;;;;;;;5.50;2.65;;;;;;;;;;5030749;28;20033;-78
2022/05/29 05:59:47;;;;;;;5.45;2.80;;;;;;;;;;5025591;28;20018;-78
2022/05/29 06:02:13;;;;;;;5.55;2.85;;;;;;;;;;5030971;28;20029;-78
2022/05/29 06:04:39;;;;;;;3.95;2.40;;;;;;;;;;5032356;28;20490;-78
2022/05/29 06:07:06;;;;;;;5.90;3.00;;;;;;;;;;5029069;28;20044;-77
2022/05/29 06:09:32;;;;;;;5.43;3.00;;;;;;;;;;5027070;28;20014;-79
2022/05/29 06:11:59;;;;;;;4.82;2.38;;;;;;;;;;5032123;28;20454;-78
2022/05/29 06:14:25;;;;;;;5.43;2.58;;;;;;;;;;5030916;28;20025;-79
2022/05/29 06:16:51;;;;;;;4.85;2.60;;;;;;;;;;5030633;28;20033;-78
2022/05/29 06:19:18;;;;;;;5.45;2.90;;;;;;;;;;5030231;28;20080;-78
2022/05/29 06:21:44;;;;;;;4.28;2.55;;;;;;;;;;5029777;28;20068;-79
2022/05/29 06:24:10;;;;;;;5.22;2.53;;;;;;;;;;5031039;28;20051;-79
2022/05/29 06:26:36;;;;;;;5.47;2.22;;;;;;;;;;5030041;28;20029;-77
2022/05/29 06:29:03;;;;;;;6.82;2.47;;;;;;;;;;5030196;28;20036;-77
2022/05/29 06:31:29;;;;;;;5.55;2.40;;;;;;;;;;5030644;28;20037;-78
2022/05/29 06:33:55;;;;;;;5.63;2.08;;;;;;;;;;5031026;28;20061;-77
2022/05/29 06:36:23;;;;;;;5.13;1.88;;;;;;;;;;5036532;28;20045;-80
2022/05/29 06:38:50;;;;;;;5.15;2.08;;;;;;;;;;5036517;28;20068;-81
2022/05/29 06:41:17;;;;;;;5.93;2.40;;;;;;;;;;5036518;28;20028;-79
2022/05/29 06:43:43;;;;;;;3.97;1.90;;;;;;;;;;5036476;28;20026;-80
2022/05/29 06:46:10;;;;;;;4.13;1.85;;;;;;;;;;5032055;28;20427;-80
2022/05/29 06:48:37;;;;;;;5.00;2.10;;;;;;;;;;5034200;28;20025;-79
2022/05/29 06:51:07;;;;;;;4.20;2.03;;;;;;;;;;5034074;28;20017;-77
2022/05/29 06:53:33;;;;;;;4.75;2.10;;;;;;;;;;5030134;28;20029;-78
2022/05/29 06:55:59;;;;;;;6.65;2.20;;;;;;;;;;5030342;28;20506;-77
2022/05/29 06:58:25;;;;;;;4.30;2.10;;;;;;;;;;5033119;28;20471;-78
2022/05/29 07:09:06;;;;;;;6.80;1.90;;;;;;;;;;5035948;28;20036;-78
2022/05/29 07:11:35;;;;;;;5.53;2.03;;;;;;;;;;5033755;28;20022;-78
2022/05/29 07:14:04;;;;;;;5.25;2.00;;;;;;;;;;5035604;28;20502;-81
2022/05/29 07:16:30;;;;;;;5.25;2.05;;;;;;;;;;5038503;28;20065;-79
2022/05/29 07:18:56;;;;;;;4.85;2.25;;;;;;;;;;5034672;28;20529;-78
2022/05/29 07:21:22;;;;;;;5.25;2.08;;;;;;;;;;5034428;28;20083;-79
2022/05/29 07:23:49;;;;;;;5.05;1.98;;;;;;;;;;5038988;28;20025;-81
2022/05/29 07:26:16;;;;;;;4.50;1.77;;;;;;;;;;5041543;28;20025;-80
2022/05/29 07:28:42;;;;;;;4.85;1.73;;;;;;;;;;5035667;28;20515;-78
2022/05/29 07:31:08;;;;;;;6.18;2.05;;;;;;;;;;5034318;28;20037;-79
2022/05/29 07:33:34;;;;;;;4.00;1.80;;;;;;;;;;5035778;28;20021;-77
2022/05/29 07:36:00;;;;;;;5.00;1.92;;;;;;;;;;5034699;28;20034;-78
2022/05/29 07:38:29;;;;;;;5.97;1.70;;;;;;;;;;5040207;28;20075;-79
2022/05/29 07:40:55;;;;;;;4.75;2.10;;;;;;;;;;5046339;28;20048;-79
2022/05/29 07:43:22;;;;;;;5.20;1.90;;;;;;;;;;5046382;28;20030;-80
2022/05/29 07:45:56;;;;;;;4.90;2.47;;;;;;;;;;5030128;28;20056;-79
2022/05/29 07:48:25;;;;;;;6.57;2.03;;;;;;;;;;5040968;28;20104;-79
2022/05/29 07:50:51;;;;;;;3.35;1.55;;;;;;;;;;5035428;28;20124;-79
2022/05/29 07:53:18;;;;;;;3.45;1.20;;;;;;;;;;5035069;28;20026;-78
2022/05/29 07:55:44;;;;;;;4.18;1.45;;;;;;;;;;5033292;28;20025;-79
2022/05/29 07:58:11;;;;;;;4.22;1.85;;;;;;;;;;5023399;28;20455;-79
2022/05/29 08:00:37;;;;;;;4.65;1.67;;;;;;;;;;5033265;28;20048;-79
2022/05/29 08:03:04;;;;;;;4.13;1.63;;;;;;;;;;5044301;28;20049;-80
2022/05/29 08:05:31;;;;;;;3.83;1.60;;;;;;;;;;5043725;28;20021;-80
2022/05/29 08:07:57;;;;;;;4.97;1.63;;;;;;;;;;5044296;28;20025;-79
2022/05/29 08:10:24;;;;;;;4.75;1.60;;;;;;;;;;5045114;28;20039;-81
2022/05/29 08:12:50;;;;;;;4.78;1.63;;;;;;;;;;5045366;28;20017;-80
2022/05/29 08:15:16;;;;;;;4.18;1.70;;;;;;;;;;5044304;28;20053;-80
2022/05/29 08:17:43;;;;;;;5.68;1.65;;;;;;;;;;5044425;28;20360;-81
2022/05/29 08:20:10;;;;;;;3.53;1.38;;;;;;;;;;5039221;28;20030;-77
2022/05/29 08:22:36;;;;;;;4.38;1.60;;;;;;;;;;5033959;28;20026;-79
2022/05/29 08:30:38;;;;;;;4.32;1.70;;;;;;;;;;5041254;28;20120;-80
2022/05/29 08:33:04;;;;;;;;;;;;;;;;;;5042630;28;20037;-78
2022/05/29 08:35:30;;;;;;;5.05;1.60;;;;;;;;;;5040873;28;19909;-79
2022/05/29 08:37:56;;;;;;;5.32;1.50;;;;;;;;;;5041075;28;20022;-79
2022/05/29 08:40:22;;;;;;;4.75;1.80;;;;;;;;;;5043482;28;20097;-79
2022/05/29 08:42:48;;;;;;;5.53;2.08;;;;;;;;;;5042979;28;20303;-79
2022/05/29 08:45:16;;;;;;;3.92;1.63;;;;;;;;;;5041179;28;20029;-81
2022/05/29 08:47:45;;;;;;;3.33;1.50;;;;;;;;;;5055915;28;20025;-81
2022/05/29 08:50:15;;;;;;;3.85;1.58;;;;;;;;;;5042629;28;20018;-81
2022/05/29 08:52:50;;;;;;;3.28;1.40;;;;;;;;;;5043391;28;20491;-81
2022/05/29 08:55:16;;;;;;;3.28;1.58;;;;;;;;;;5035528;28;20033;-79
2022/05/29 08:57:42;;;;;;;5.05;1.60;;;;;;;;;;5034011;28;20034;-79
2022/05/29 09:00:28;;;;;;;3.90;1.50;;;;;;;;;;5023515;28;20416;-78
2022/05/29 09:03:14;;;;;;;3.00;1.30;;;;;;;;;;5019114;28;20042;-79
2022/05/29 09:05:48;;;;;;;3.55;1.20;;;;;;;;;;4998612;28;20026;-78
2022/05/29 09:08:32;;;;;;;3.00;1.20;;;;;;;;;;5030609;28;20454;-79
2022/05/29 09:11:05;;;;;;;4.80;1.42;;;;;;;;;;5031977;28;20033;-79
2022/05/29 09:13:40;;;;;;;3.97;1.38;;;;;;;;;;5011547;28;20068;-79
2022/05/29 09:16:09;;;;;;;3.55;1.50;;;;;;;;;;5021302;28;20096;-81
2022/05/29 09:18:38;;;;;;;5.22;1.77;;;;;;;;;;5027399;28;20053;-79
2022/05/29 09:21:10;;;;;;;3.50;1.40;;;;;;;;;;5014487;28;20038;-81
2022/05/29 09:23:41;;;;;;;5.27;1.50;;;;;;;;;;5031745;28;20017;-79
2022/05/29 09:26:08;;;;;;;5.50;1.70;;;;;;;;;;5027568;28;20320;-81
2022/05/29 09:28:38;;;;;;;4.82;1.70;;;;;;;;;;5013088;28;20030;-79
2022/05/29 09:31:18;;;;;;;5.40;1.50;;;;;;;;;;5014961;28;20030;-82
2022/05/29 09:33:44;;;;;;;4.55;1.40;;;;;;;;;;5001285;28;20034;-82
2022/05/29 09:36:19;;;;;;;3.85;1.88;;;;;;;;;;5007463;28;20032;-81
2022/05/29 09:38:50;;;;;;;4.75;1.75;;;;;;;;;;5028286;28;20088;-82
2022/05/29 09:41:21;;;;;;;3.65;1.60;;;;;;;;;;5038985;28;20026;-80
2022/05/29 09:44:05;;;;;;;3.22;1.40;;;;;;;;;;5019929;28;20426;-79
2022/05/29 09:46:32;;;;;;;4.35;1.65;;;;;;;;;;5031218;28;20022;-80
2022/05/29 09:51:48;;;;;;;4.32;1.67;;;;;;;;;;5035420;28;20040;-82
2022/05/29 09:54:22;;;;;;;4.53;1.80;;;;;;;;;;5040952;28;20029;-78
2022/05/29 09:56:48;;;;;;;4.65;1.88;;;;;;;;;;5034126;28;20029;-80
2022/05/29 09:59:19;;;;;;;3.60;1.40;;;;;;;;;;5036120;28;20395;-80
2022/05/29 10:01:46;;;;;;;3.40;1.40;;;;;;;;;;5031301;28;20025;-79
2022/05/29 10:04:13;;;;;;;6.63;1.60;;;;;;;;;;5029191;28;20052;-79
2022/05/29 10:06:46;;;;;;;4.38;1.67;;;;;;;;;;5024631;28;20101;-80
2022/05/29 10:09:12;;;;;;;4.43;1.50;;;;;;;;;;5033590;28;20075;-80
2022/05/29 10:11:38;;;;;;;4.40;1.50;;;;;;;;;;5032030;28;20021;-80
2022/05/29 10:14:19;;;;;;;5.05;1.50;;;;;;;;;;5039416;28;20033;-82
2022/05/29 10:16:47;;;;;;;4.05;1.33;;;;;;;;;;5041160;28;20029;-80
2022/05/29 10:19:14;;;;;;;3.75;1.63;;;;;;;;;;5039640;28;20017;-82
2022/05/29 10:21:45;;;;;;;3.88;1.30;;;;;;;;;;5040205;28;20029;-83
2022/05/29 10:24:22;;;;;;;4.60;1.60;;;;;;;;;;5037664;28;20038;-83
2022/05/29 10:26:52;;;;;;;4.47;1.40;;;;;;;;;;5036469;28;20053;-82
2022/05/29 10:29:27;;;;;;;3.67;1.20;;;;;;;;;;5041215;28;20110;-83
2022/05/29 10:31:53;;;;;;;5.88;1.50;;;;;;;;;;5039906;28;20025;-83
2022/05/29 10:34:24;;;;;;;3.65;1.30;;;;;;;;;;5037994;28;20033;-81
2022/05/29 10:36:50;;;;;;;3.75;1.63;;;;;;;;;;5040597;28;20103;-82
2022/05/29 10:39:22;;;;;;;5.32;1.45;;;;;;;;;;5043394;28;20472;-81
2022/05/29 10:41:48;;;;;;;7.20;1.92;;;;;;;;;;5042782;28;20108;-81
2022/05/29 10:44:34;;;;;;;3.53;1.60;;;;;;;;;;5040363;28;20022;-80
2022/05/29 10:47:18;;;;;;;4.03;1.45;;;;;;;;;;5030677;28;20493;-81
2022/05/29 10:49:50;;;;;;;4.22;1.60;;;;;;;;;;5037393;28;20063;-81
2022/05/29 10:52:16;;;;;;;4.70;1.60;;;;;;;;;;5034479;28;20017;-78
2022/05/29 10:54:42;;;;;;;5.68;1.75;;;;;;;;;;5017929;28;20033;-80
2022/05/29 10:57:27;;;;;;;3.70;1.40;;;;;;;;;;5031601;28;20074;-81
2022/05/29 11:00:02;;;;;;;4.75;1.40;;;;;;;;;;5028579;28;20032;-81
2022/05/29 11:05:25;;;;;;;4.03;1.40;;;;;;;;;;5022331;28;20109;-81
2022/05/29 11:08:12;;;;;;;3.67;1.40;;;;;;;;;;5038177;28;20026;-83
2022/05/29 11:10:38;;;;;;;4.25;2.22;;;;;;;;;;5041649;28;20036;-83
2022/05/29 11:13:23;;;;;;;4.05;1.55;;;;;;;;;;5041114;28;20430;-83
2022/05/29 11:15:55;;;;;;;4.07;1.50;;;;;;;;;;5041839;28;20036;-83
2022/05/29 11:18:33;;;;;;;3.80;1.67;;;;;;;;;;5041449;28;20396;-83
2022/05/29 11:21:04;;;;;;;3.83;1.67;;;;;;;;;;5041908;28;20036;-82
2022/05/29 11:23:46;;;;;;;3.30;1.35;;;;;;;;;;5044028;28;20087;-84
2022/05/29 11:26:31;;;;;;;5.00;1.40;;;;;;;;;;5042112;28;20112;-83
2022/05/29 11:29:10;;;;;;;5.20;2.08;;;;;;;;;;5042223;28;20033;-83
2022/05/29 11:31:36;;;;;;;4.43;1.50;;;;;;;;;;5042367;28;20029;-83
2022/05/29 11:34:11;;;;;;;4.47;1.52;;;;;;;;;;5044315;28;20487;-82
2022/05/29 11:36:57;;;;;;;4.20;1.60;;;;;;;;;;5044112;28;20021;-83
2022/05/29 11:39:32;;;;;;;3.47;1.40;;;;;;;;;;5042536;28;20037;-82
2022/05/29 11:42:01;;;;;;;3.63;1.77;;;;;;;;;;5040735;28;20024;-83
2022/05/29 11:44:33;;;;;;;3.60;1.20;;;;;;;;;;5040630;28;20025;-83
2022/05/29 11:52:43;;;;;;;3.70;1.30;;;;;;;;;;5046080;28;20050;-82
2022/05/29 11:55:13;;;;;;;4.95;1.30;;;;;;;;;;5026652;28;20627;-83
2022/05/29 11:57:57;;;;;;;3.25;1.23;;;;;;;;;;5022084;28;20495;-81
2022/05/29 12:00:44;;;;;;;4.78;1.65;;;;;;;;;;5035453;28;20030;-82
2022/05/29 12:03:10;;;;;;;3.85;1.30;;;;;;;;;;5037048;28;20032;-81
2022/05/29 12:05:40;;;;;;;3.83;1.20;;;;;;;;;;5037742;28;20030;-82
2022/05/29 12:08:10;;;;;;;6.50;1.55;;;;;;;;;;5036372;28;20029;-79
2022/05/29 12:10:51;;;;;;;3.58;1.45;;;;;;;;;;5037785;28;20092;-82
2022/05/29 12:13:18;;;;;;;5.15;1.30;;;;;;;;;;5037897;28;20103;-82
2022/05/29 12:15:54;;;;;;;2.65;1.08;;;;;;;;;;5038153;28;20034;-82
2022/05/29 12:18:21;;;;;;;3.13;1.20;;;;;;;;;;5042006;28;20112;-81
2022/05/29 12:20:52;;;;;;;3.67;1.10;;;;;;;;;;5040700;28;20060;-81
2022/05/29 12:23:30;;;;;;;3.40;1.20;;;;;;;;;;5037729;28;20031;-79
2022/05/29 12:26:00;;;;;;;3.08;1.13;;;;;;;;;;5025847;28;20049;-81
2022/05/29 12:28:29;;;;;;;3.88;1.10;;;;;;;;;;5037398;28;20013;-81
2022/05/29 12:30:56;;;;;;;3.78;1.40;;;;;;;;;;5035489;28;20017;-80
2022/05/29 12:33:24;;;;;;;4.15;1.40;;;;;;;;;;5035792;28;20037;-81
2022/05/29 12:35:52;;;;;;;3.70;1.45;;;;;;;;;;5033038;28;20069;-79
2022/05/29 12:38:18;;;;;;;5.32;1.95;;;;;;;;;;5036656;28;20167;-81
2022/05/29 12:41:23;;;;;;;4.68;1.77;;;;;;;;;;5036336;28;20080;-82
2022/05/29 12:43:52;;;;;;;7.32;2.17;;;;;;;;;;4990440;28;20022;-80
2022/05/29 12:46:37;;;;;;;4.15;1.30;;;;;;;;;;4978485;28;20030;-79
2022/05/29 12:49:21;;;;;;;3.22;1.33;;;;;;;;;;5019905;28;20091;-80
2022/05/29 12:52:05;;;;;;;3.75;1.30;;;;;;;;;;5036286;28;20029;-81
2022/05/29 12:54:57;;;;;;;3.88;1.30;;;;;;;;;;5032869;28;20036;-81
2022/05/29 12:57:50;;;;;;;4.03;1.37;;;;;;;;;;5028888;28;20491;-80
2022/05/29 13:00:24;;;;;;;4.67;1.87;;;;;;;;;;5023600;28;20053;-78
2022/05/29 13:03:08;;;;;;;3.38;1.40;;;;;;;;;;5030646;28;20048;-78
2022/05/29 13:05:47;;;;;;;3.92;1.20;;;;;;;;;;5034682;28;20029;-79
2022/05/29 13:08:13;;;;;;;3.50;1.50;;;;;;;;;;5034800;28;20034;-78
2022/05/29 13:10:41;;;;;;;4.88;1.48;;;;;;;;;;5027278;28;20032;-80
2022/05/29 13:13:13;;;;;;;4.57;1.50;;;;;;;;;;5036159;28;20025;-77
2022/05/29 13:15:40;;;;;;;3.78;1.20;;;;;;;;;;5034240;28;20105;-78
2022/05/29 13:18:38;;;;;;;3.72;1.58;;;;;;;;;;5033650;28;20018;-81
2022/05/29 13:21:15;;;;;;;3.72;1.30;;;;;;;;;;5025144;28;20196;-81
2022/05/29 13:23:44;;;;;;;3.10;1.25;;;;;;;;;;5017528;28;20061;-82
2022/05/29 13:26:10;;;;;;;4.35;1.48;;;;;;;;;;5033458;28;20527;-81
2022/05/29 13:28:41;;;;;;;4.88;1.70;;;;;;;;;;5035485;28;20025;-80
2022/05/29 13:31:09;;;;;;;5.70;1.80;;;;;;;;;;5035549;28;20022;-80
2022/05/29 13:33:36;;;;;;;4.28;1.65;;;;;;;;;;5034221;28;20040;-80
2022/05/29 13:36:03;;;;;;;4.45;1.85;;;;;;;;;;5031735;28;20025;-81
2022/05/29 13:38:52;;;;;;;5.10;1.80;;;;;;;;;;5039418;28;20025;-81
2022/05/29 13:41:25;;;;;;;4.30;1.88;;;;;;;;;;5012688;28;20054;-83
2022/05/29 13:43:51;;;;;;;6.05;2.00;;;;;;;;;;5024957;28;20040;-84
2022/05/29 13:46:19;;;;;;;4.53;2.08;;;;;;;;;;5038702;28;20049;-85
2022/05/29 13:49:06;;;;;;;4.75;2.20;;;;;;;;;;5036964;28;20029;-80
2022/05/29 13:51:41;;;;;;;4.43;2.00;;;;;;;;;;5030116;28;20083;-83
2022/05/29 13:54:10;;;;;;;6.10;2.40;;;;;;;;;;5036217;28;20080;-82
2022/05/29 13:56:57;;;;;;;5.43;1.98;;;;;;;;;;5038100;28;20056;-83
2022/05/29 14:05:10;;;;;;;4.95;2.35;;;;;;;;;;5038798;28;20037;-82
2022/05/29 14:07:36;;;;;;;7.70;3.08;;;;;;;;;;5038910;28;20088;-80
2022/05/29 14:10:02;;;;;;;5.32;2.10;;;;;;;;;;5038018;28;20075;-83
2022/05/29 14:12:31;;;;;;;5.25;1.83;;;;;;;;;;5039991;28;20112;-83
2022/05/29 14:14:57;;;;;;;4.38;2.28;;;;;;;;;;5044882;28;20083;-83
2022/05/29 14:17:23;;;;;;;5.25;2.20;;;;;;;;;;5035821;28;20395;-83
2022/05/29 14:19:59;;;;;;;4.65;2.10;;;;;;;;;;5034741;28;20026;-82
2022/05/29 14:25:13;;;;;;;4.80;2.30;;;;;;;;;;5030049;28;20446;-82
2022/05/29 14:28:05;;;;;;;7.05;2.78;;;;;;;;;;5033835;28;20032;-82
2022/05/29 14:30:31;;;;;;;4.20;2.25;;;;;;;;;;5033714;28;20041;-82
2022/05/29 14:33:06;;;;;;;4.45;2.30;;;;;;;;;;5050545;28;20487;-83
2022/05/29 14:35:32;;;;;;;4.90;2.50;;;;;;;;;;5035461;28;20022;-83
2022/05/29 14:38:01;;;;;;;4.65;2.38;;;;;;;;;;5033268;28;20116;-85
2022/05/29 14:40:40;;;;;;;6.95;2.72;;;;;;;;;;5034200;28;20025;-83
2022/05/29 14:43:10;;;;;;;5.00;2.47;;;;;;;;;;5034277;28;20021;-82
2022/05/29 14:45:36;;;;;;;5.47;2.92;;;;;;;;;;5034675;28;20021;-81
2022/05/29 14:48:14;;;;;;;4.00;2.35;;;;;;;;;;5035630;28;20487;-81
2022/05/29 14:50:47;;;;;;;5.70;2.50;;;;;;;;;;5034913;28;20021;-83
2022/05/29 14:53:16;;;;;;;6.30;3.08;;;;;;;;;;5033505;28;20033;-82
2022/05/29 14:55:42;;;;;;;6.00;2.88;;;;;;;;;;5036538;28;20074;-83
2022/05/29 14:58:09;;;;;;;4.90;2.70;;;;;;;;;;5035934;28;20026;-82
2022/05/29 15:00:35;;;;;;;6.03;3.22;;;;;;;;;;5036136;28;20126;-82
2022/05/29 15:03:02;;;;;;;6.63;3.50;;;;;;;;;;5028715;28;20034;-83
2022/05/29 15:05:29;;;;;;;5.20;3.08;;;;;;;;;;5035490;28;20076;-83
2022/05/29 15:10:45;;;;;;;7.55;3.42;;;;;;;;;;5038066;28;20123;-83
2022/05/29 15:13:13;;;;;;;5.32;3.03;;;;;;;;;;5035344;28;20025;-81
2022/05/29 15:15:49;;;;;;;5.18;2.95;;;;;;;;;;5034505;28;20117;-83
2022/05/29 15:18:24;;;;;;;5.93;3.10;;;;;;;;;;5035812;28;20487;-83
2022/05/29 15:26:20;;;;;;;5.82;2.88;;;;;;;;;;5037446;28;20075;-84
2022/05/29 15:28:51;;;;;;;4.90;2.83;;;;;;;;;;5038548;28;20112;-83
2022/05/29 15:31:22;;;;;;;5.32;3.25;;;;;;;;;;5039305;28;20028;-84
2022/05/29 15:33:57;;;;;;;5.15;3.00;;;;;;;;;;5038355;28;20549;-83
2022/05/29 15:36:38;;;;;;;7.25;3.15;;;;;;;;;;5040635;28;20053;-82
2022/05/29 15:39:11;;;;;;;5.05;3.00;;;;;;;;;;5039002;28;20048;-82
2022/05/29 15:41:43;;;;;;;5.53;2.80;;;;;;;;;;5037861;28;20036;-82
2022/05/29 15:44:15;;;;;;;5.72;3.30;;;;;;;;;;5036088;28;20025;-83
2022/05/29 15:47:14;;;;;;;5.90;2.95;;;;;;;;;;5037492;28;20037;-82
2022/05/29 15:50:00;;;;;;;4.80;2.60;;;;;;;;;;5024992;28;20064;-83
2022/05/29 15:52:32;;;;;;;6.47;3.00;;;;;;;;;;5029468;28;20064;-83
2022/05/29 15:55:15;;;;;;;4.97;3.10;;;;;;;;;;5038685;28;20169;-81